sensor_id;sensor_type;location;lat;lon;timestamp;P1;durP1;ratioP1;P2;durP2;ratioP2
9420;SDS011;4749;51.398;5.466;2023-10-09T00:02:08;21.00;;;12.00;;
9420;SDS011;4749;51.398;5.466;2023-10-09T00:04:37;21.20;;;12.93;;
9420;SDS011;4749;51.398;5.466;2023-10-09T00:07:07;22.15;;;12.32;;
9420;SDS011;4749;51.398;5.466;2023-10-09T00:09:35;22.70;;;12.73;;
9420;SDS011;4749;51.398;5.466;2023-10-09T00:12:18;21.60;;;12.25;;
9420;SDS011;4749;51.398;5.466;2023-10-09T00:14:51;23.75;;;12.48;;
9420;SDS011;4749;51.398;5.466;2023-10-09T00:17:22;20.08;;;12.32;;
9420;SDS011;4749;51.398;5.466;2023-10-09T00:19:51;21.15;;;12.13;;
9420;SDS011;4749;51.398;5.466;2023-10-09T00:22:19;18.27;;;11.48;;
9420;SDS011;4749;51.398;5.466;2023-10-09T00:24:53;20.17;;;11.75;;
9420;SDS011;4749;51.398;5.466;2023-10-09T00:27:41;21.27;;;11.85;;
9420;SDS011;4749;51.398;5.466;2023-10-09T00:30:10;21.00;;;12.38;;
9420;SDS011;4749;51.398;5.466;2023-10-09T00:32:48;21.38;;;11.80;;
9420;SDS011;4749;51.398;5.466;2023-10-09T00:35:25;25.27;;;12.90;;
9420;SDS011;4749;51.398;5.466;2023-10-09T00:38:11;20.70;;;12.07;;
9420;SDS011;4749;51.398;5.466;2023-10-09T00:40:48;18.95;;;11.57;;
9420;SDS011;4749;51.398;5.466;2023-10-09T00:43:34;19.25;;;11.75;;
9420;SDS011;4749;51.398;5.466;2023-10-09T00:46:04;21.42;;;11.27;;
9420;SDS011;4749;51.398;5.466;2023-10-09T00:48:55;22.08;;;11.32;;
9420;SDS011;4749;51.398;5.466;2023-10-09T00:51:25;21.33;;;12.05;;
9420;SDS011;4749;51.398;5.466;2023-10-09T00:53:54;17.35;;;11.63;;
9420;SDS011;4749;51.398;5.466;2023-10-09T00:56:25;17.92;;;11.07;;
9420;SDS011;4749;51.398;5.466;2023-10-09T00:58:54;21.48;;;11.23;;
9420;SDS011;4749;51.398;5.466;2023-10-09T01:01:42;16.92;;;10.18;;
9420;SDS011;4749;51.398;5.466;2023-10-09T01:04:30;19.30;;;11.13;;
9420;SDS011;4749;51.398;5.466;2023-10-09T01:07:04;18.20;;;11.63;;
9420;SDS011;4749;51.398;5.466;2023-10-09T01:09:39;15.45;;;10.15;;
9420;SDS011;4749;51.398;5.466;2023-10-09T01:12:10;20.17;;;11.30;;
9420;SDS011;4749;51.398;5.466;2023-10-09T01:14:43;18.77;;;11.02;;
9420;SDS011;4749;51.398;5.466;2023-10-09T01:17:11;16.58;;;10.13;;
9420;SDS011;4749;51.398;5.466;2023-10-09T01:19:52;21.40;;;10.88;;
9420;SDS011;4749;51.398;5.466;2023-10-09T01:22:22;17.95;;;10.15;;
9420;SDS011;4749;51.398;5.466;2023-10-09T01:24:49;17.85;;;10.95;;
9420;SDS011;4749;51.398;5.466;2023-10-09T01:27:17;17.98;;;10.45;;
9420;SDS011;4749;51.398;5.466;2023-10-09T01:29:49;23.13;;;11.73;;
9420;SDS011;4749;51.398;5.466;2023-10-09T01:32:18;16.70;;;10.32;;
9420;SDS011;4749;51.398;5.466;2023-10-09T01:34:46;17.77;;;11.55;;
9420;SDS011;4749;51.398;5.466;2023-10-09T01:37:18;18.27;;;10.98;;
9420;SDS011;4749;51.398;5.466;2023-10-09T01:39:52;18.30;;;11.00;;
9420;SDS011;4749;51.398;5.466;2023-10-09T01:42:47;16.42;;;10.85;;
9420;SDS011;4749;51.398;5.466;2023-10-09T01:45:14;20.02;;;10.25;;
9420;SDS011;4749;51.398;5.466;2023-10-09T01:47:42;17.35;;;9.82;;
9420;SDS011;4749;51.398;5.466;2023-10-09T01:50:18;20.80;;;11.15;;
9420;SDS011;4749;51.398;5.466;2023-10-09T01:52:51;17.60;;;10.13;;
9420;SDS011;4749;51.398;5.466;2023-10-09T01:55:19;20.92;;;10.77;;
9420;SDS011;4749;51.398;5.466;2023-10-09T01:58:06;22.42;;;11.23;;
9420;SDS011;4749;51.398;5.466;2023-10-09T02:00:51;17.42;;;10.15;;
9420;SDS011;4749;51.398;5.466;2023-10-09T02:03:31;18.95;;;10.10;;
9420;SDS011;4749;51.398;5.466;2023-10-09T02:06:03;14.82;;;10.52;;
9420;SDS011;4749;51.398;5.466;2023-10-09T02:08:44;17.30;;;10.35;;
9420;SDS011;4749;51.398;5.466;2023-10-09T02:11:16;17.20;;;10.07;;
9420;SDS011;4749;51.398;5.466;2023-10-09T02:14:05;17.70;;;10.70;;
9420;SDS011;4749;51.398;5.466;2023-10-09T02:16:46;15.00;;;10.40;;
9420;SDS011;4749;51.398;5.466;2023-10-09T02:19:32;18.13;;;10.45;;
9420;SDS011;4749;51.398;5.466;2023-10-09T02:22:05;20.92;;;11.52;;
9420;SDS011;4749;51.398;5.466;2023-10-09T02:24:42;16.50;;;11.07;;
9420;SDS011;4749;51.398;5.466;2023-10-09T02:27:17;17.02;;;11.60;;
9420;SDS011;4749;51.398;5.466;2023-10-09T02:30:04;22.05;;;11.63;;
9420;SDS011;4749;51.398;5.466;2023-10-09T02:32:44;17.63;;;10.90;;
9420;SDS011;4749;51.398;5.466;2023-10-09T02:35:19;20.40;;;11.25;;
9420;SDS011;4749;51.398;5.466;2023-10-09T02:37:47;18.42;;;12.45;;
9420;SDS011;4749;51.398;5.466;2023-10-09T02:40:14;18.77;;;10.38;;
9420;SDS011;4749;51.398;5.466;2023-10-09T02:42:50;21.63;;;12.00;;
9420;SDS011;4749;51.398;5.466;2023-10-09T02:45:17;18.30;;;11.48;;
9420;SDS011;4749;51.398;5.466;2023-10-09T02:47:45;23.30;;;12.27;;
9420;SDS011;4749;51.398;5.466;2023-10-09T02:50:15;17.92;;;11.48;;
9420;SDS011;4749;51.398;5.466;2023-10-09T02:52:49;18.35;;;11.27;;
9420;SDS011;4749;51.398;5.466;2023-10-09T02:55:26;20.67;;;11.80;;
9420;SDS011;4749;51.398;5.466;2023-10-09T02:57:54;18.67;;;11.05;;
9420;SDS011;4749;51.398;5.466;2023-10-09T03:00:33;18.30;;;10.68;;
9420;SDS011;4749;51.398;5.466;2023-10-09T03:03:03;18.58;;;11.15;;
9420;SDS011;4749;51.398;5.466;2023-10-09T03:05:34;21.05;;;11.25;;
9420;SDS011;4749;51.398;5.466;2023-10-09T03:08:05;16.67;;;11.40;;
9420;SDS011;4749;51.398;5.466;2023-10-09T03:10:35;17.38;;;10.77;;
9420;SDS011;4749;51.398;5.466;2023-10-09T03:13:02;17.55;;;10.85;;
9420;SDS011;4749;51.398;5.466;2023-10-09T03:15:32;18.25;;;10.98;;
9420;SDS011;4749;51.398;5.466;2023-10-09T03:18:02;18.70;;;10.57;;
9420;SDS011;4749;51.398;5.466;2023-10-09T03:20:33;19.48;;;11.55;;
9420;SDS011;4749;51.398;5.466;2023-10-09T03:23:00;16.45;;;10.85;;
9420;SDS011;4749;51.398;5.466;2023-10-09T03:25:28;17.88;;;11.73;;
9420;SDS011;4749;51.398;5.466;2023-10-09T03:27:55;19.30;;;11.18;;
9420;SDS011;4749;51.398;5.466;2023-10-09T03:30:25;17.40;;;11.65;;
9420;SDS011;4749;51.398;5.466;2023-10-09T03:32:52;16.88;;;11.18;;
9420;SDS011;4749;51.398;5.466;2023-10-09T03:35:21;20.80;;;11.38;;
9420;SDS011;4749;51.398;5.466;2023-10-09T03:37:55;18.75;;;10.60;;
9420;SDS011;4749;51.398;5.466;2023-10-09T03:40:27;17.25;;;10.90;;
9420;SDS011;4749;51.398;5.466;2023-10-09T03:42:55;18.42;;;12.43;;
9420;SDS011;4749;51.398;5.466;2023-10-09T03:45:22;16.90;;;11.40;;
9420;SDS011;4749;51.398;5.466;2023-10-09T03:47:56;19.58;;;11.88;;
9420;SDS011;4749;51.398;5.466;2023-10-09T03:50:29;20.30;;;11.73;;
9420;SDS011;4749;51.398;5.466;2023-10-09T03:53:11;18.00;;;11.15;;
9420;SDS011;4749;51.398;5.466;2023-10-09T03:55:39;15.75;;;10.60;;
9420;SDS011;4749;51.398;5.466;2023-10-09T03:58:07;20.35;;;12.18;;
9420;SDS011;4749;51.398;5.466;2023-10-09T04:00:38;19.48;;;11.20;;
9420;SDS011;4749;51.398;5.466;2023-10-09T04:03:13;18.45;;;11.50;;
9420;SDS011;4749;51.398;5.466;2023-10-09T04:05:41;20.77;;;12.30;;
9420;SDS011;4749;51.398;5.466;2023-10-09T04:08:10;18.92;;;11.88;;
9420;SDS011;4749;51.398;5.466;2023-10-09T04:10:47;15.63;;;10.40;;
9420;SDS011;4749;51.398;5.466;2023-10-09T04:13:23;22.65;;;11.73;;
9420;SDS011;4749;51.398;5.466;2023-10-09T04:16:00;18.58;;;11.52;;
9420;SDS011;4749;51.398;5.466;2023-10-09T04:18:37;19.63;;;12.05;;
9420;SDS011;4749;51.398;5.466;2023-10-09T04:21:05;17.25;;;11.32;;
9420;SDS011;4749;51.398;5.466;2023-10-09T04:23:46;18.70;;;11.73;;
9420;SDS011;4749;51.398;5.466;2023-10-09T04:26:26;17.73;;;11.57;;
9420;SDS011;4749;51.398;5.466;2023-10-09T04:28:55;18.92;;;12.32;;
9420;SDS011;4749;51.398;5.466;2023-10-09T04:31:23;18.02;;;11.73;;
9420;SDS011;4749;51.398;5.466;2023-10-09T04:33:58;20.83;;;13.00;;
9420;SDS011;4749;51.398;5.466;2023-10-09T04:36:44;22.83;;;12.65;;
9420;SDS011;4749;51.398;5.466;2023-10-09T04:39:27;17.33;;;12.55;;
9420;SDS011;4749;51.398;5.466;2023-10-09T04:41:57;19.40;;;13.02;;
9420;SDS011;4749;51.398;5.466;2023-10-09T04:44:45;21.33;;;11.77;;
9420;SDS011;4749;51.398;5.466;2023-10-09T04:47:32;21.80;;;12.63;;
9420;SDS011;4749;51.398;5.466;2023-10-09T04:50:25;18.25;;;12.25;;
9420;SDS011;4749;51.398;5.466;2023-10-09T04:52:58;20.58;;;12.30;;
9420;SDS011;4749;51.398;5.466;2023-10-09T04:55:45;19.25;;;11.88;;
9420;SDS011;4749;51.398;5.466;2023-10-09T04:58:22;21.70;;;13.13;;
9420;SDS011;4749;51.398;5.466;2023-10-09T05:00:52;18.20;;;13.63;;
9420;SDS011;4749;51.398;5.466;2023-10-09T05:03:23;22.52;;;13.85;;
9420;SDS011;4749;51.398;5.466;2023-10-09T05:05:55;21.63;;;13.45;;
9420;SDS011;4749;51.398;5.466;2023-10-09T05:08:26;20.50;;;12.90;;
9420;SDS011;4749;51.398;5.466;2023-10-09T05:13:31;25.40;;;13.80;;
9420;SDS011;4749;51.398;5.466;2023-10-09T05:16:11;22.65;;;13.77;;
9420;SDS011;4749;51.398;5.466;2023-10-09T05:18:49;21.33;;;13.52;;
9420;SDS011;4749;51.398;5.466;2023-10-09T05:21:24;25.73;;;14.35;;
9420;SDS011;4749;51.398;5.466;2023-10-09T05:23:59;21.83;;;13.75;;
9420;SDS011;4749;51.398;5.466;2023-10-09T05:26:42;23.02;;;15.13;;
9420;SDS011;4749;51.398;5.466;2023-10-09T05:29:15;22.63;;;14.93;;
9420;SDS011;4749;51.398;5.466;2023-10-09T05:32:05;22.67;;;13.88;;
9420;SDS011;4749;51.398;5.466;2023-10-09T05:34:45;23.42;;;13.75;;
9420;SDS011;4749;51.398;5.466;2023-10-09T05:37:28;24.15;;;14.85;;
9420;SDS011;4749;51.398;5.466;2023-10-09T05:40:04;21.13;;;13.82;;
9420;SDS011;4749;51.398;5.466;2023-10-09T05:42:45;22.08;;;14.30;;
9420;SDS011;4749;51.398;5.466;2023-10-09T05:45:24;22.38;;;14.77;;
9420;SDS011;4749;51.398;5.466;2023-10-09T05:48:11;22.35;;;14.18;;
9420;SDS011;4749;51.398;5.466;2023-10-09T05:50:39;24.25;;;14.65;;
9420;SDS011;4749;51.398;5.466;2023-10-09T05:53:21;23.13;;;14.65;;
9420;SDS011;4749;51.398;5.466;2023-10-09T05:56:07;25.27;;;14.90;;
9420;SDS011;4749;51.398;5.466;2023-10-09T05:58:53;21.13;;;13.93;;
9420;SDS011;4749;51.398;5.466;2023-10-09T06:01:32;26.48;;;15.65;;
9420;SDS011;4749;51.398;5.466;2023-10-09T06:04:18;27.02;;;15.38;;
9420;SDS011;4749;51.398;5.466;2023-10-09T06:06:47;23.20;;;14.13;;
9420;SDS011;4749;51.398;5.466;2023-10-09T06:09:27;25.70;;;13.88;;
9420;SDS011;4749;51.398;5.466;2023-10-09T06:12:26;24.23;;;15.93;;
9420;SDS011;4749;51.398;5.466;2023-10-09T06:15:00;24.60;;;15.43;;
9420;SDS011;4749;51.398;5.466;2023-10-09T06:17:50;26.10;;;16.25;;
9420;SDS011;4749;51.398;5.466;2023-10-09T06:20:18;26.27;;;15.48;;
9420;SDS011;4749;51.398;5.466;2023-10-09T06:23:06;22.38;;;14.57;;
9420;SDS011;4749;51.398;5.466;2023-10-09T06:25:43;24.20;;;15.07;;
9420;SDS011;4749;51.398;5.466;2023-10-09T06:28:33;24.40;;;15.00;;
9420;SDS011;4749;51.398;5.466;2023-10-09T06:31:00;28.13;;;14.85;;
9420;SDS011;4749;51.398;5.466;2023-10-09T06:33:47;23.70;;;15.30;;
9420;SDS011;4749;51.398;5.466;2023-10-09T06:36:34;25.27;;;16.05;;
9420;SDS011;4749;51.398;5.466;2023-10-09T06:39:02;23.08;;;14.80;;
9420;SDS011;4749;51.398;5.466;2023-10-09T06:41:48;23.88;;;16.30;;
9420;SDS011;4749;51.398;5.466;2023-10-09T06:44:35;28.33;;;16.30;;
9420;SDS011;4749;51.398;5.466;2023-10-09T06:47:20;26.52;;;16.02;;
9420;SDS011;4749;51.398;5.466;2023-10-09T06:49:50;28.08;;;16.08;;
9420;SDS011;4749;51.398;5.466;2023-10-09T06:52:38;24.92;;;16.48;;
9420;SDS011;4749;51.398;5.466;2023-10-09T06:55:24;26.85;;;16.25;;
9420;SDS011;4749;51.398;5.466;2023-10-09T06:58:00;28.52;;;16.13;;
9420;SDS011;4749;51.398;5.466;2023-10-09T07:00:39;28.50;;;16.90;;
9420;SDS011;4749;51.398;5.466;2023-10-09T07:03:27;28.60;;;16.90;;
9420;SDS011;4749;51.398;5.466;2023-10-09T07:06:09;26.08;;;16.58;;
9420;SDS011;4749;51.398;5.466;2023-10-09T07:09:12;26.75;;;15.73;;
9420;SDS011;4749;51.398;5.466;2023-10-09T07:11:41;21.02;;;15.20;;
9420;SDS011;4749;51.398;5.466;2023-10-09T07:14:11;24.80;;;15.68;;
9420;SDS011;4749;51.398;5.466;2023-10-09T07:17:18;26.83;;;14.63;;
9420;SDS011;4749;51.398;5.466;2023-10-09T07:19:50;23.52;;;14.98;;
9420;SDS011;4749;51.398;5.466;2023-10-09T07:22:22;21.80;;;15.32;;
9420;SDS011;4749;51.398;5.466;2023-10-09T07:24:53;25.50;;;15.23;;
9420;SDS011;4749;51.398;5.466;2023-10-09T07:27:25;24.48;;;15.38;;
9420;SDS011;4749;51.398;5.466;2023-10-09T07:30:16;23.58;;;13.98;;
9420;SDS011;4749;51.398;5.466;2023-10-09T07:35:38;22.38;;;14.48;;
9420;SDS011;4749;51.398;5.466;2023-10-09T07:38:08;25.30;;;15.65;;
9420;SDS011;4749;51.398;5.466;2023-10-09T07:40:55;23.75;;;14.95;;
9420;SDS011;4749;51.398;5.466;2023-10-09T07:43:29;23.70;;;15.25;;
9420;SDS011;4749;51.398;5.466;2023-10-09T07:46:05;29.05;;;15.00;;
9420;SDS011;4749;51.398;5.466;2023-10-09T07:48:53;22.60;;;15.32;;
9420;SDS011;4749;51.398;5.466;2023-10-09T07:51:22;25.23;;;15.93;;
9420;SDS011;4749;51.398;5.466;2023-10-09T07:53:58;23.67;;;15.98;;
9420;SDS011;4749;51.398;5.466;2023-10-09T07:56:36;24.00;;;14.90;;
9420;SDS011;4749;51.398;5.466;2023-10-09T07:59:09;22.48;;;15.13;;
9420;SDS011;4749;51.398;5.466;2023-10-09T08:01:45;28.23;;;16.15;;
9420;SDS011;4749;51.398;5.466;2023-10-09T08:04:21;24.98;;;16.00;;
9420;SDS011;4749;51.398;5.466;2023-10-09T08:07:06;26.95;;;15.35;;
9420;SDS011;4749;51.398;5.466;2023-10-09T08:09:55;23.73;;;15.55;;
9420;SDS011;4749;51.398;5.466;2023-10-09T08:12:40;30.63;;;16.52;;
9420;SDS011;4749;51.398;5.466;2023-10-09T08:15:11;26.60;;;16.55;;
9420;SDS011;4749;51.398;5.466;2023-10-09T08:17:53;26.10;;;16.35;;
9420;SDS011;4749;51.398;5.466;2023-10-09T08:20:46;30.10;;;17.25;;
9420;SDS011;4749;51.398;5.466;2023-10-09T08:23:28;26.33;;;15.75;;
9420;SDS011;4749;51.398;5.466;2023-10-09T08:26:02;28.77;;;17.25;;
9420;SDS011;4749;51.398;5.466;2023-10-09T08:28:43;27.73;;;17.70;;
9420;SDS011;4749;51.398;5.466;2023-10-09T08:31:16;26.85;;;16.55;;
9420;SDS011;4749;51.398;5.466;2023-10-09T08:34:12;22.75;;;16.25;;
9420;SDS011;4749;51.398;5.466;2023-10-09T08:36:56;29.42;;;16.52;;
9420;SDS011;4749;51.398;5.466;2023-10-09T08:39:23;28.98;;;16.55;;
9420;SDS011;4749;51.398;5.466;2023-10-09T08:41:54;25.38;;;16.10;;
9420;SDS011;4749;51.398;5.466;2023-10-09T08:44:25;26.23;;;17.67;;
9420;SDS011;4749;51.398;5.466;2023-10-09T08:46:56;23.77;;;16.38;;
9420;SDS011;4749;51.398;5.466;2023-10-09T08:49:25;23.42;;;17.23;;
9420;SDS011;4749;51.398;5.466;2023-10-09T08:51:54;23.75;;;15.63;;
9420;SDS011;4749;51.398;5.466;2023-10-09T08:54:23;23.13;;;15.63;;
9420;SDS011;4749;51.398;5.466;2023-10-09T08:56:50;23.13;;;15.13;;
9420;SDS011;4749;51.398;5.466;2023-10-09T08:59:17;22.70;;;15.18;;
9420;SDS011;4749;51.398;5.466;2023-10-09T09:01:46;30.23;;;16.70;;
9420;SDS011;4749;51.398;5.466;2023-10-09T09:07:27;24.20;;;16.10;;
9420;SDS011;4749;51.398;5.466;2023-10-09T09:09:59;24.23;;;15.98;;
9420;SDS011;4749;51.398;5.466;2023-10-09T09:12:47;22.52;;;15.18;;
9420;SDS011;4749;51.398;5.466;2023-10-09T09:15:27;23.60;;;16.20;;
9420;SDS011;4749;51.398;5.466;2023-10-09T09:18:04;21.55;;;15.88;;
9420;SDS011;4749;51.398;5.466;2023-10-09T09:20:38;20.75;;;15.35;;
9420;SDS011;4749;51.398;5.466;2023-10-09T09:23:12;29.33;;;16.02;;
9420;SDS011;4749;51.398;5.466;2023-10-09T09:25:44;26.23;;;15.05;;
9420;SDS011;4749;51.398;5.466;2023-10-09T09:28:26;26.77;;;15.63;;
9420;SDS011;4749;51.398;5.466;2023-10-09T09:31:08;25.52;;;15.20;;
9420;SDS011;4749;51.398;5.466;2023-10-09T09:33:40;23.52;;;15.05;;
9420;SDS011;4749;51.398;5.466;2023-10-09T09:36:09;29.20;;;14.57;;
9420;SDS011;4749;51.398;5.466;2023-10-09T09:38:40;24.35;;;16.60;;
9420;SDS011;4749;51.398;5.466;2023-10-09T09:41:17;22.95;;;15.18;;
9420;SDS011;4749;51.398;5.466;2023-10-09T09:43:55;22.88;;;14.75;;
9420;SDS011;4749;51.398;5.466;2023-10-09T09:46:36;23.70;;;14.43;;
9420;SDS011;4749;51.398;5.466;2023-10-09T09:49:06;23.48;;;15.68;;
9420;SDS011;4749;51.398;5.466;2023-10-09T09:51:43;22.75;;;15.25;;
9420;SDS011;4749;51.398;5.466;2023-10-09T09:54:15;21.13;;;14.70;;
9420;SDS011;4749;51.398;5.466;2023-10-09T09:56:43;21.85;;;14.20;;
9420;SDS011;4749;51.398;5.466;2023-10-09T09:59:17;22.38;;;15.18;;
9420;SDS011;4749;51.398;5.466;2023-10-09T10:01:51;21.48;;;14.77;;
9420;SDS011;4749;51.398;5.466;2023-10-09T10:04:25;23.02;;;15.32;;
9420;SDS011;4749;51.398;5.466;2023-10-09T10:07:01;23.67;;;14.63;;
9420;SDS011;4749;51.398;5.466;2023-10-09T10:09:39;23.13;;;15.18;;
9420;SDS011;4749;51.398;5.466;2023-10-09T10:12:12;29.73;;;15.40;;
9420;SDS011;4749;51.398;5.466;2023-10-09T10:15:02;21.88;;;14.85;;
9420;SDS011;4749;51.398;5.466;2023-10-09T10:20:59;23.83;;;15.55;;
9420;SDS011;4749;51.398;5.466;2023-10-09T10:35:36;23.85;;;17.45;;
9420;SDS011;4749;51.398;5.466;2023-10-09T10:38:45;25.67;;;17.10;;
9420;SDS011;4749;51.398;5.466;2023-10-09T10:41:13;24.88;;;17.50;;
9420;SDS011;4749;51.398;5.466;2023-10-09T10:43:46;28.10;;;17.02;;
9420;SDS011;4749;51.398;5.466;2023-10-09T10:46:22;22.48;;;16.48;;
9420;SDS011;4749;51.398;5.466;2023-10-09T10:48:59;27.05;;;17.92;;
9420;SDS011;4749;51.398;5.466;2023-10-09T10:51:42;27.95;;;17.65;;
9420;SDS011;4749;51.398;5.466;2023-10-09T10:54:22;27.20;;;18.10;;
9420;SDS011;4749;51.398;5.466;2023-10-09T10:57:00;29.63;;;17.25;;
9420;SDS011;4749;51.398;5.466;2023-10-09T10:59:31;28.13;;;17.38;;
9420;SDS011;4749;51.398;5.466;2023-10-09T11:02:11;23.85;;;17.48;;
9420;SDS011;4749;51.398;5.466;2023-10-09T11:04:39;23.33;;;17.75;;
9420;SDS011;4749;51.398;5.466;2023-10-09T11:07:11;22.83;;;16.15;;
9420;SDS011;4749;51.398;5.466;2023-10-09T11:09:54;25.00;;;17.15;;
9420;SDS011;4749;51.398;5.466;2023-10-09T11:12:41;25.00;;;16.73;;
9420;SDS011;4749;51.398;5.466;2023-10-09T11:15:32;23.80;;;15.43;;
9420;SDS011;4749;51.398;5.466;2023-10-09T11:18:22;22.05;;;16.05;;
9420;SDS011;4749;51.398;5.466;2023-10-09T11:20:54;27.65;;;18.25;;
9420;SDS011;4749;51.398;5.466;2023-10-09T11:23:29;22.98;;;16.30;;
9420;SDS011;4749;51.398;5.466;2023-10-09T11:26:00;27.42;;;17.90;;
9420;SDS011;4749;51.398;5.466;2023-10-09T11:32:05;24.83;;;17.92;;
9420;SDS011;4749;51.398;5.466;2023-10-09T11:34:40;26.10;;;18.42;;
9420;SDS011;4749;51.398;5.466;2023-10-09T11:37:12;26.23;;;17.38;;
9420;SDS011;4749;51.398;5.466;2023-10-09T11:39:57;24.13;;;17.70;;
9420;SDS011;4749;51.398;5.466;2023-10-09T11:42:29;25.75;;;18.85;;
9420;SDS011;4749;51.398;5.466;2023-10-09T11:45:23;32.53;;;19.70;;
9420;SDS011;4749;51.398;5.466;2023-10-09T11:47:57;25.35;;;17.55;;
9420;SDS011;4749;51.398;5.466;2023-10-09T11:50:39;27.05;;;18.40;;
9420;SDS011;4749;51.398;5.466;2023-10-09T11:53:43;27.38;;;19.00;;
9420;SDS011;4749;51.398;5.466;2023-10-09T11:56:16;27.38;;;19.60;;
9420;SDS011;4749;51.398;5.466;2023-10-09T11:58:49;29.10;;;18.90;;
9420;SDS011;4749;51.398;5.466;2023-10-09T12:01:18;27.00;;;19.35;;
9420;SDS011;4749;51.398;5.466;2023-10-09T12:03:50;27.10;;;18.90;;
9420;SDS011;4749;51.398;5.466;2023-10-09T12:06:20;25.58;;;18.27;;
9420;SDS011;4749;51.398;5.466;2023-10-09T12:08:51;27.55;;;19.38;;
9420;SDS011;4749;51.398;5.466;2023-10-09T12:11:20;23.85;;;19.13;;
9420;SDS011;4749;51.398;5.466;2023-10-09T12:14:25;28.50;;;18.52;;
9420;SDS011;4749;51.398;5.466;2023-10-09T12:17:00;25.10;;;17.30;;
9420;SDS011;4749;51.398;5.466;2023-10-09T12:19:36;26.50;;;18.73;;
9420;SDS011;4749;51.398;5.466;2023-10-09T12:22:06;26.77;;;18.55;;
9420;SDS011;4749;51.398;5.466;2023-10-09T12:24:43;27.95;;;18.23;;
9420;SDS011;4749;51.398;5.466;2023-10-09T12:27:10;24.95;;;17.75;;
9420;SDS011;4749;51.398;5.466;2023-10-09T12:29:37;27.85;;;18.23;;
9420;SDS011;4749;51.398;5.466;2023-10-09T12:32:14;24.77;;;16.90;;
9420;SDS011;4749;51.398;5.466;2023-10-09T12:34:45;24.77;;;15.55;;
9420;SDS011;4749;51.398;5.466;2023-10-09T12:37:17;23.17;;;15.20;;
9420;SDS011;4749;51.398;5.466;2023-10-09T12:39:47;21.90;;;15.23;;
9420;SDS011;4749;51.398;5.466;2023-10-09T12:42:15;24.02;;;15.60;;
9420;SDS011;4749;51.398;5.466;2023-10-09T12:44:43;21.73;;;14.35;;
9420;SDS011;4749;51.398;5.466;2023-10-09T12:47:12;22.27;;;14.80;;
9420;SDS011;4749;51.398;5.466;2023-10-09T12:49:42;20.15;;;13.23;;
9420;SDS011;4749;51.398;5.466;2023-10-09T12:52:18;22.08;;;13.45;;
9420;SDS011;4749;51.398;5.466;2023-10-09T12:54:46;17.98;;;12.55;;
9420;SDS011;4749;51.398;5.466;2023-10-09T12:57:13;20.50;;;12.82;;
9420;SDS011;4749;51.398;5.466;2023-10-09T12:59:40;19.67;;;11.65;;
9420;SDS011;4749;51.398;5.466;2023-10-09T13:02:15;18.65;;;11.40;;
9420;SDS011;4749;51.398;5.466;2023-10-09T13:04:58;22.70;;;11.05;;
9420;SDS011;4749;51.398;5.466;2023-10-09T13:07:31;19.30;;;11.45;;
9420;SDS011;4749;51.398;5.466;2023-10-09T13:09:58;19.02;;;11.77;;
9420;SDS011;4749;51.398;5.466;2023-10-09T13:12:35;20.77;;;11.45;;
9420;SDS011;4749;51.398;5.466;2023-10-09T13:15:08;18.08;;;11.27;;
9420;SDS011;4749;51.398;5.466;2023-10-09T13:17:37;19.83;;;10.50;;
9420;SDS011;4749;51.398;5.466;2023-10-09T13:20:05;16.08;;;9.68;;
9420;SDS011;4749;51.398;5.466;2023-10-09T13:22:40;17.85;;;10.18;;
9420;SDS011;4749;51.398;5.466;2023-10-09T13:25:09;17.45;;;9.55;;
9420;SDS011;4749;51.398;5.466;2023-10-09T13:28:00;16.65;;;9.75;;
9420;SDS011;4749;51.398;5.466;2023-10-09T13:30:31;15.43;;;9.30;;
9420;SDS011;4749;51.398;5.466;2023-10-09T13:33:06;13.80;;;9.93;;
9420;SDS011;4749;51.398;5.466;2023-10-09T13:35:35;19.25;;;9.32;;
9420;SDS011;4749;51.398;5.466;2023-10-09T13:38:14;16.05;;;9.90;;
9420;SDS011;4749;51.398;5.466;2023-10-09T13:40:43;16.52;;;10.43;;
9420;SDS011;4749;51.398;5.466;2023-10-09T13:43:11;17.80;;;9.25;;
9420;SDS011;4749;51.398;5.466;2023-10-09T13:45:43;15.65;;;9.32;;
9420;SDS011;4749;51.398;5.466;2023-10-09T13:48:16;14.15;;;9.88;;
9420;SDS011;4749;51.398;5.466;2023-10-09T13:50:44;14.70;;;9.07;;
9420;SDS011;4749;51.398;5.466;2023-10-09T13:53:13;17.05;;;9.60;;
9420;SDS011;4749;51.398;5.466;2023-10-09T13:55:42;15.75;;;8.32;;
9420;SDS011;4749;51.398;5.466;2023-10-09T13:58:13;13.75;;;9.13;;
9420;SDS011;4749;51.398;5.466;2023-10-09T14:00:47;13.75;;;7.88;;
9420;SDS011;4749;51.398;5.466;2023-10-09T14:03:16;14.48;;;8.20;;
9420;SDS011;4749;51.398;5.466;2023-10-09T14:05:46;12.30;;;8.40;;
9420;SDS011;4749;51.398;5.466;2023-10-09T14:08:26;12.07;;;7.22;;
9420;SDS011;4749;51.398;5.466;2023-10-09T14:10:55;12.63;;;8.10;;
9420;SDS011;4749;51.398;5.466;2023-10-09T14:13:23;15.27;;;8.15;;
9420;SDS011;4749;51.398;5.466;2023-10-09T14:15:56;13.20;;;8.80;;
9420;SDS011;4749;51.398;5.466;2023-10-09T14:18:26;11.07;;;7.50;;
9420;SDS011;4749;51.398;5.466;2023-10-09T14:21:00;16.67;;;8.30;;
9420;SDS011;4749;51.398;5.466;2023-10-09T14:23:31;14.32;;;8.20;;
9420;SDS011;4749;51.398;5.466;2023-10-09T14:26:01;14.27;;;7.68;;
9420;SDS011;4749;51.398;5.466;2023-10-09T14:28:29;13.75;;;7.75;;
9420;SDS011;4749;51.398;5.466;2023-10-09T14:30:56;15.65;;;7.70;;
9420;SDS011;4749;51.398;5.466;2023-10-09T14:33:27;13.23;;;7.03;;
9420;SDS011;4749;51.398;5.466;2023-10-09T14:36:02;14.95;;;7.38;;
9420;SDS011;4749;51.398;5.466;2023-10-09T14:38:32;15.45;;;7.57;;
9420;SDS011;4749;51.398;5.466;2023-10-09T14:41:05;13.43;;;7.45;;
9420;SDS011;4749;51.398;5.466;2023-10-09T14:43:39;15.73;;;7.72;;
9420;SDS011;4749;51.398;5.466;2023-10-09T14:46:12;11.45;;;7.07;;
9420;SDS011;4749;51.398;5.466;2023-10-09T14:48:41;13.82;;;7.57;;
9420;SDS011;4749;51.398;5.466;2023-10-09T14:51:13;18.20;;;7.57;;
9420;SDS011;4749;51.398;5.466;2023-10-09T14:53:40;13.68;;;7.50;;
9420;SDS011;4749;51.398;5.466;2023-10-09T14:56:07;13.38;;;7.25;;
9420;SDS011;4749;51.398;5.466;2023-10-09T14:58:36;15.25;;;7.82;;
9420;SDS011;4749;51.398;5.466;2023-10-09T15:01:09;16.92;;;6.80;;
9420;SDS011;4749;51.398;5.466;2023-10-09T15:03:39;14.10;;;7.30;;
9420;SDS011;4749;51.398;5.466;2023-10-09T15:06:07;17.13;;;7.93;;
9420;SDS011;4749;51.398;5.466;2023-10-09T15:08:37;12.82;;;8.18;;
9420;SDS011;4749;51.398;5.466;2023-10-09T15:11:04;17.58;;;7.55;;
9420;SDS011;4749;51.398;5.466;2023-10-09T15:13:32;12.82;;;7.63;;
9420;SDS011;4749;51.398;5.466;2023-10-09T15:16:00;13.90;;;7.88;;
9420;SDS011;4749;51.398;5.466;2023-10-09T15:18:30;16.95;;;8.35;;
9420;SDS011;4749;51.398;5.466;2023-10-09T15:21:03;17.35;;;8.15;;
9420;SDS011;4749;51.398;5.466;2023-10-09T15:23:32;16.40;;;7.68;;
9420;SDS011;4749;51.398;5.466;2023-10-09T15:26:00;15.20;;;8.60;;
9420;SDS011;4749;51.398;5.466;2023-10-09T15:28:27;13.32;;;8.10;;
9420;SDS011;4749;51.398;5.466;2023-10-09T15:30:59;18.38;;;8.00;;
9420;SDS011;4749;51.398;5.466;2023-10-09T15:33:26;14.95;;;7.40;;
9420;SDS011;4749;51.398;5.466;2023-10-09T15:36:08;17.58;;;7.78;;
9420;SDS011;4749;51.398;5.466;2023-10-09T15:38:39;16.17;;;8.48;;
9420;SDS011;4749;51.398;5.466;2023-10-09T15:41:07;15.98;;;8.40;;
9420;SDS011;4749;51.398;5.466;2023-10-09T15:43:37;18.27;;;8.07;;
9420;SDS011;4749;51.398;5.466;2023-10-09T15:46:10;19.00;;;7.78;;
9420;SDS011;4749;51.398;5.466;2023-10-09T15:48:43;13.30;;;7.50;;
9420;SDS011;4749;51.398;5.466;2023-10-09T15:51:11;16.00;;;7.97;;
9420;SDS011;4749;51.398;5.466;2023-10-09T15:53:45;17.48;;;8.32;;
9420;SDS011;4749;51.398;5.466;2023-10-09T15:56:13;16.02;;;8.52;;
9420;SDS011;4749;51.398;5.466;2023-10-09T15:58:41;15.57;;;8.68;;
9420;SDS011;4749;51.398;5.466;2023-10-09T16:01:10;20.35;;;8.00;;
9420;SDS011;4749;51.398;5.466;2023-10-09T16:03:42;13.23;;;7.68;;
9420;SDS011;4749;51.398;5.466;2023-10-09T16:06:10;14.18;;;6.97;;